createdAt,value
2023-02-06T00:00:18.156Z,10.32
2023-02-06T00:02:45.315Z,9.68
2023-02-06T00:05:12.504Z,8.18
2023-02-06T00:07:39.724Z,8.48
2023-02-06T00:10:07.077Z,9.20
2023-02-06T00:12:34.306Z,9.13
2023-02-06T00:15:01.423Z,8.70
2023-02-06T00:17:28.608Z,9.20
2023-02-06T00:19:55.716Z,8.90
2023-02-06T00:22:22.807Z,7.85
2023-02-06T00:24:49.916Z,7.15
2023-02-06T00:27:17.082Z,6.47
2023-02-06T00:29:44.241Z,7.60
2023-02-06T00:32:11.376Z,6.53
2023-02-06T00:34:38.528Z,6.82
2023-02-06T00:37:05.648Z,10.02
2023-02-06T00:39:32.896Z,7.13
2023-02-06T00:42:00.110Z,7.03
2023-02-06T00:44:27.348Z,6.00
2023-02-06T00:46:54.562Z,7.10
2023-02-06T00:49:21.935Z,12.57
2023-02-06T00:51:49.148Z,9.02
2023-02-06T00:54:16.566Z,7.00
2023-02-06T00:56:43.668Z,5.82
2023-02-06T00:59:10.810Z,6.90
2023-02-06T01:01:37.991Z,11.75
2023-02-06T01:04:05.193Z,5.95
2023-02-06T01:06:32.399Z,7.05
2023-02-06T01:08:59.565Z,7.22
2023-02-06T01:11:27.543Z,8.20
2023-02-06T01:13:54.884Z,6.40
2023-02-06T01:16:24.123Z,6.13
2023-02-06T01:18:51.341Z,5.65
2023-02-06T01:21:20.554Z,8.77
2023-02-06T01:23:51.586Z,5.38
2023-02-06T01:26:20.520Z,6.53
2023-02-06T01:28:48.323Z,5.63
2023-02-06T01:31:20.475Z,5.97
2023-02-06T01:33:47.972Z,5.85
2023-02-06T01:36:15.755Z,6.00
2023-02-06T01:38:43.167Z,5.68
2023-02-06T01:41:11.396Z,5.22
2023-02-06T01:43:41.204Z,6.57
2023-02-06T01:46:08.728Z,5.90
2023-02-06T01:48:35.924Z,8.80
2023-02-06T01:51:04.015Z,5.25
2023-02-06T01:53:31.890Z,4.78
2023-02-06T01:56:02.331Z,5.45
2023-02-06T01:58:37.603Z,6.70
2023-02-06T02:01:05.954Z,4.60
2023-02-06T02:03:34.688Z,5.97
2023-02-06T02:06:02.967Z,6.40
2023-02-06T02:08:33.591Z,5.63
2023-02-06T02:11:02.633Z,5.00
2023-02-06T02:13:32.090Z,5.25
2023-02-06T02:16:00.597Z,4.63
2023-02-06T02:18:27.758Z,4.88
2023-02-06T02:21:14.871Z,5.10
2023-02-06T02:23:50.868Z,6.13
2023-02-06T02:26:25.453Z,5.40
2023-02-06T02:29:11.425Z,4.85
2023-02-06T02:31:38.887Z,7.55
2023-02-06T02:34:24.862Z,5.57
2023-02-06T02:36:56.106Z,5.75
2023-02-06T02:39:41.847Z,6.13
2023-02-06T02:42:08.932Z,7.22
2023-02-06T02:44:39.165Z,5.35
2023-02-06T02:47:08.502Z,5.88
2023-02-06T02:49:37.394Z,7.60
2023-02-06T02:52:05.011Z,4.88
2023-02-06T02:54:32.131Z,6.28
2023-02-06T02:57:06.860Z,7.03
2023-02-06T02:59:38.325Z,5.07
2023-02-06T03:02:11.160Z,4.88
2023-02-06T03:04:40.288Z,5.70
2023-02-06T03:07:19.373Z,5.03
2023-02-06T03:09:52.701Z,5.57
2023-02-06T03:12:23.821Z,5.80
2023-02-06T03:14:51.050Z,4.93
2023-02-06T03:17:20.788Z,5.30
2023-02-06T03:19:50.456Z,5.03
2023-02-06T03:22:18.474Z,4.45
2023-02-06T03:24:45.959Z,4.38
2023-02-06T03:27:15.512Z,4.78
2023-02-06T03:29:43.389Z,5.80
2023-02-06T03:32:13.629Z,5.18
2023-02-06T03:34:45.319Z,4.35
2023-02-06T03:37:12.699Z,5.00
2023-02-06T03:39:40.432Z,5.25
2023-02-06T03:42:09.684Z,5.43
2023-02-06T03:44:38.887Z,5.25
2023-02-06T03:47:08.579Z,4.35
2023-02-06T03:49:37.829Z,5.03
2023-02-06T03:52:07.910Z,4.80
2023-02-06T03:54:36.632Z,4.72
2023-02-06T03:57:04.885Z,7.05
2023-02-06T03:59:32.530Z,4.30
2023-02-06T04:02:02.561Z,4.93
2023-02-06T04:04:35.501Z,4.65
2023-02-06T04:07:05.558Z,5.78
2023-02-06T04:09:32.668Z,5.43
2023-02-06T04:11:59.785Z,4.88
2023-02-06T04:14:26.938Z,4.63
2023-02-06T04:16:54.086Z,5.10
2023-02-06T04:19:21.243Z,4.60
2023-02-06T04:21:48.373Z,4.70
2023-02-06T04:24:15.579Z,4.07
2023-02-06T04:26:42.736Z,5.40
2023-02-06T04:29:09.965Z,4.65
2023-02-06T04:31:37.161Z,4.70
2023-02-06T04:34:04.287Z,4.72
2023-02-06T04:36:31.410Z,4.53
2023-02-06T04:38:58.585Z,5.00
2023-02-06T04:41:25.762Z,4.80
2023-02-06T04:43:52.874Z,4.75
2023-02-06T04:46:20.087Z,4.40
2023-02-06T04:48:47.796Z,6.72
2023-02-06T04:51:14.945Z,5.15
2023-02-06T04:53:42.071Z,4.82
2023-02-06T04:56:10.661Z,4.50
2023-02-06T04:58:38.121Z,4.90
2023-02-06T05:01:05.814Z,6.85
2023-02-06T05:03:33.005Z,5.28
2023-02-06T05:06:01.237Z,4.65
2023-02-06T05:08:28.421Z,4.95
2023-02-06T05:10:56.039Z,4.55
2023-02-06T05:13:23.822Z,4.57
2023-02-06T05:15:51.073Z,4.80
2023-02-06T05:18:18.651Z,5.97
2023-02-06T05:20:46.068Z,6.93
2023-02-06T05:23:13.213Z,4.55
2023-02-06T05:25:42.199Z,4.60
2023-02-06T05:28:09.929Z,4.82
2023-02-06T05:30:37.543Z,4.82
2023-02-06T05:33:04.733Z,6.72
2023-02-06T05:35:31.882Z,5.03
2023-02-06T05:37:59.339Z,4.90
2023-02-06T05:40:26.479Z,6.03
2023-02-06T05:42:53.654Z,4.65
2023-02-06T05:45:20.803Z,5.22
2023-02-06T05:47:47.995Z,5.28
2023-02-06T05:50:15.216Z,5.57
2023-02-06T05:52:42.448Z,5.32
2023-02-06T05:55:09.672Z,4.70
2023-02-06T05:57:36.957Z,4.80
2023-02-06T06:00:05.371Z,6.20
2023-02-06T06:02:32.584Z,5.40
2023-02-06T06:04:59.771Z,5.50
2023-02-06T06:07:26.901Z,7.88
2023-02-06T06:09:54.090Z,5.25
2023-02-06T06:12:21.300Z,6.85
2023-02-06T06:14:48.439Z,5.82
2023-02-06T06:17:16.006Z,5.05
2023-02-06T06:19:43.182Z,5.72
2023-02-06T06:22:11.462Z,10.45
2023-02-06T06:24:38.582Z,9.32
2023-02-06T06:27:08.177Z,8.15
2023-02-06T06:29:35.346Z,11.15
2023-02-06T06:32:02.525Z,8.30
2023-02-06T06:34:29.679Z,8.73
2023-02-06T06:36:56.822Z,7.03
2023-02-06T06:39:24.211Z,6.72
2023-02-06T06:41:51.409Z,13.48
2023-02-06T06:44:18.719Z,7.85
2023-02-06T06:46:45.869Z,11.93
2023-02-06T06:49:13.023Z,9.40
2023-02-06T06:51:40.187Z,8.23
2023-02-06T06:54:07.361Z,8.00
2023-02-06T06:56:34.558Z,7.25
2023-02-06T06:59:01.760Z,10.98
2023-02-06T07:01:29.005Z,12.02
2023-02-06T07:03:56.268Z,9.77
2023-02-06T07:06:23.505Z,8.10
2023-02-06T07:08:50.637Z,10.68
2023-02-06T07:11:18.645Z,11.60
2023-02-06T07:13:46.164Z,7.50
2023-02-06T07:16:13.839Z,8.27
2023-02-06T07:18:42.962Z,7.38
2023-02-06T07:21:10.826Z,9.75
2023-02-06T07:23:38.429Z,7.88
2023-02-06T07:26:06.726Z,8.13
2023-02-06T07:28:34.410Z,8.60
2023-02-06T07:31:02.398Z,8.85
2023-02-06T07:33:29.668Z,8.07
2023-02-06T07:35:56.809Z,7.47
2023-02-06T07:38:24.011Z,8.98
2023-02-06T07:40:51.206Z,7.18
2023-02-06T07:43:18.515Z,10.18
2023-02-06T07:45:45.843Z,11.48
2023-02-06T07:48:13.081Z,7.43
2023-02-06T07:50:40.421Z,9.63
2023-02-06T07:53:07.906Z,9.48
2023-02-06T07:55:36.642Z,8.18
2023-02-06T07:58:04.148Z,7.25
2023-02-06T08:00:31.360Z,9.77
2023-02-06T08:02:58.621Z,8.68
2023-02-06T08:05:25.742Z,9.82
2023-02-06T08:07:52.955Z,7.05
2023-02-06T08:10:20.174Z,7.53
2023-02-06T08:12:47.351Z,8.55
2023-02-06T08:15:14.601Z,9.93
2023-02-06T08:17:44.610Z,8.02
2023-02-06T08:20:12.337Z,15.30
2023-02-06T08:22:39.926Z,7.70
2023-02-06T08:25:07.508Z,14.00
2023-02-06T08:27:34.696Z,17.92
2023-02-06T08:30:01.826Z,12.48
2023-02-06T08:32:33.412Z,12.00
2023-02-06T08:35:00.548Z,12.73
2023-02-06T08:37:28.195Z,8.07
2023-02-06T08:39:55.470Z,10.02
2023-02-06T08:42:22.605Z,14.77
2023-02-06T08:44:49.823Z,11.82
2023-02-06T08:47:17.143Z,8.82
2023-02-06T08:49:44.315Z,9.52
2023-02-06T08:52:11.534Z,8.43
2023-02-06T08:54:39.040Z,10.68
2023-02-06T08:57:06.797Z,12.77
2023-02-06T08:59:34.763Z,9.85
2023-02-06T09:02:01.968Z,10.13
2023-02-06T09:04:31.704Z,9.65
2023-02-06T09:06:58.917Z,9.30
2023-02-06T09:09:26.150Z,10.82
2023-02-06T09:11:55.420Z,7.03
2023-02-06T09:14:22.664Z,7.97
2023-02-06T09:16:49.786Z,6.00
2023-02-06T09:19:16.943Z,11.80
2023-02-06T09:21:44.087Z,6.30
2023-02-06T09:24:11.569Z,6.53
2023-02-06T09:26:53.389Z,8.25
2023-02-06T09:29:25.648Z,8.85
2023-02-06T09:31:52.790Z,6.93
2023-02-06T09:34:20.008Z,13.18
2023-02-06T09:36:47.204Z,7.68
2023-02-06T09:39:14.314Z,8.38
2023-02-06T09:41:46.204Z,6.25
2023-02-06T09:44:17.622Z,9.48
2023-02-06T09:46:50.363Z,6.78
2023-02-06T09:49:21.647Z,6.65
2023-02-06T09:52:07.597Z,9.55
2023-02-06T09:54:46.863Z,8.75
2023-02-06T09:57:18.728Z,8.55
2023-02-06T09:59:48.430Z,11.60
2023-02-06T10:02:18.394Z,7.13
2023-02-06T10:05:04.516Z,8.98
2023-02-06T10:07:57.216Z,6.47
2023-02-06T10:10:36.545Z,11.00
2023-02-06T10:13:10.342Z,8.13
2023-02-06T10:15:40.461Z,10.55
2023-02-06T10:18:14.628Z,10.60
2023-02-06T10:20:44.398Z,10.20
2023-02-06T10:23:34.472Z,5.88
2023-02-06T10:26:05.773Z,9.05
2023-02-06T10:28:35.269Z,8.77
2023-02-06T10:31:17.633Z,6.95
2023-02-06T10:33:56.856Z,9.35
2023-02-06T10:36:35.833Z,11.38
2023-02-06T10:39:07.710Z,7.82
2023-02-06T10:41:56.605Z,11.63
2023-02-06T10:44:28.095Z,7.75
2023-02-06T10:46:55.845Z,8.20
2023-02-06T10:49:22.971Z,8.52
2023-02-06T10:51:54.856Z,7.40
2023-02-06T10:54:32.492Z,9.27
2023-02-06T10:57:00.595Z,8.32
2023-02-06T10:59:30.608Z,8.52
2023-02-06T11:02:16.554Z,7.38
2023-02-06T11:04:46.629Z,6.80
2023-02-06T11:07:17.292Z,9.88
2023-02-06T11:09:45.195Z,11.27
2023-02-06T11:12:23.134Z,9.43
2023-02-06T11:14:51.397Z,24.35
2023-02-06T11:17:19.384Z,38.60
2023-02-06T11:19:47.025Z,61.58
2023-02-06T11:22:16.263Z,62.63
2023-02-06T11:25:04.817Z,71.28
2023-02-06T11:27:33.322Z,94.22
2023-02-06T11:30:03.367Z,77.57
2023-02-06T11:32:36.501Z,70.22
2023-02-06T11:35:06.886Z,84.57
2023-02-06T11:37:38.168Z,66.07
2023-02-06T11:40:21.101Z,71.05
2023-02-06T11:42:49.572Z,76.93
2023-02-06T11:45:26.153Z,77.47
2023-02-06T11:47:53.471Z,73.63
2023-02-06T11:50:23.841Z,72.78
2023-02-06T11:52:55.934Z,70.47
2023-02-06T11:55:24.362Z,69.68
2023-02-06T11:58:10.376Z,72.05
2023-02-06T12:00:38.201Z,63.85
2023-02-06T12:03:06.249Z,78.53
2023-02-06T12:05:40.274Z,61.90
2023-02-06T12:08:15.213Z,64.50
2023-02-06T12:10:57.172Z,59.08
2023-02-06T12:13:30.897Z,62.83
2023-02-06T12:16:01.975Z,61.97
2023-02-06T12:18:50.289Z,61.58
2023-02-06T12:21:27.332Z,51.58
2023-02-06T12:24:00.382Z,56.53
2023-02-06T12:26:34.563Z,61.47
2023-02-06T12:29:04.545Z,54.60
2023-02-06T12:31:47.895Z,58.25
2023-02-06T12:34:19.898Z,55.33
2023-02-06T12:36:54.864Z,51.58
2023-02-06T12:39:23.088Z,51.27
2023-02-06T12:42:01.783Z,50.28
2023-02-06T12:44:38.205Z,48.80
2023-02-06T12:47:08.128Z,51.60
2023-02-06T12:49:43.100Z,49.33
2023-02-06T12:52:22.486Z,49.13
2023-02-06T12:54:55.895Z,46.17
2023-02-06T12:57:24.440Z,47.05
2023-02-06T12:59:58.351Z,45.38
2023-02-06T13:02:42.573Z,44.50
2023-02-06T13:05:22.882Z,40.90
2023-02-06T13:07:51.114Z,50.42
2023-02-06T13:10:22.255Z,46.55
2023-02-06T13:12:56.518Z,44.92
2023-02-06T13:15:24.889Z,40.33
2023-02-06T13:17:52.564Z,41.72
2023-02-06T13:20:20.796Z,34.00
2023-02-06T13:22:54.742Z,36.95
2023-02-06T13:25:31.043Z,36.40
2023-02-06T13:28:16.993Z,40.30
2023-02-06T13:30:46.953Z,38.28
2023-02-06T13:33:18.501Z,35.80
2023-02-06T13:36:03.063Z,33.80
2023-02-06T13:38:35.949Z,36.17
2023-02-06T13:41:15.584Z,38.20
2023-02-06T13:43:47.139Z,31.88
2023-02-06T13:46:22.502Z,35.15
2023-02-06T13:48:49.636Z,26.88
2023-02-06T13:51:30.890Z,33.88
2023-02-06T13:54:16.836Z,36.55
2023-02-06T13:56:43.921Z,31.95
2023-02-06T13:59:15.169Z,31.00
2023-02-06T14:01:42.387Z,29.15
2023-02-06T14:04:11.526Z,28.08
2023-02-06T14:06:41.603Z,28.20
2023-02-06T14:09:44.314Z,29.60
2023-02-06T14:12:31.399Z,31.77
2023-02-06T14:15:05.845Z,29.50
2023-02-06T14:17:48.133Z,26.92
2023-02-06T14:20:44.675Z,28.77
2023-02-06T14:23:17.780Z,25.30
2023-02-06T14:26:00.456Z,29.65
2023-02-06T14:28:33.783Z,29.02
2023-02-06T14:31:09.716Z,25.70
2023-02-06T14:33:42.929Z,28.00
2023-02-06T14:36:19.366Z,25.15
2023-02-06T14:38:49.311Z,29.83
2023-02-06T14:41:17.181Z,24.02
2023-02-06T14:43:45.638Z,27.38
2023-02-06T14:46:14.914Z,27.65
2023-02-06T14:48:45.236Z,29.50
2023-02-06T14:51:24.278Z,28.80
2023-02-06T14:53:53.126Z,23.27
2023-02-06T14:56:26.452Z,25.15
2023-02-06T14:58:54.175Z,22.63
2023-02-06T15:01:27.338Z,25.95
2023-02-06T15:04:08.870Z,26.10
2023-02-06T15:06:38.407Z,24.60
2023-02-06T15:09:06.186Z,22.95
2023-02-06T15:11:33.827Z,22.13
2023-02-06T15:14:07.900Z,23.63
2023-02-06T15:16:48.276Z,24.48
2023-02-06T15:19:20.174Z,26.77
2023-02-06T15:21:47.672Z,27.00
2023-02-06T15:24:26.057Z,22.88
2023-02-06T15:27:22.667Z,22.67
2023-02-06T15:29:50.734Z,22.60
2023-02-06T15:32:22.048Z,21.33
2023-02-06T15:34:49.300Z,23.83
2023-02-06T15:37:42.591Z,19.63
2023-02-06T15:40:15.525Z,17.40
2023-02-06T15:42:43.013Z,16.10
2023-02-06T15:45:16.510Z,22.80
2023-02-06T15:47:45.978Z,15.95
2023-02-06T15:50:17.059Z,19.05
2023-02-06T15:52:47.275Z,17.23
2023-02-06T15:55:28.710Z,17.60
2023-02-06T15:57:57.036Z,16.42
2023-02-06T16:00:29.041Z,18.27
2023-02-06T16:02:58.811Z,15.80
2023-02-06T16:05:27.968Z,16.58
2023-02-06T16:07:55.183Z,17.77
2023-02-06T16:10:27.204Z,17.27
2023-02-06T16:12:55.202Z,16.63
2023-02-06T16:15:33.365Z,16.13
2023-02-06T16:18:01.785Z,16.23
2023-02-06T16:20:42.824Z,18.13
2023-02-06T16:23:19.899Z,15.13
2023-02-06T16:25:48.637Z,13.35
2023-02-06T16:28:23.437Z,15.95
2023-02-06T16:30:58.130Z,16.90
2023-02-06T16:33:34.137Z,15.65
2023-02-06T16:36:01.603Z,15.43
2023-02-06T16:38:28.828Z,13.75
2023-02-06T16:40:56.285Z,18.67
2023-02-06T16:43:23.910Z,16.73
2023-02-06T16:45:51.166Z,14.50
2023-02-06T16:48:18.414Z,17.45
2023-02-06T16:50:46.408Z,16.67
2023-02-06T16:53:20.186Z,15.10
2023-02-06T16:55:47.523Z,12.45
2023-02-06T16:58:19.901Z,15.60
2023-02-06T17:00:48.038Z,14.88
2023-02-06T17:03:17.274Z,18.50
2023-02-06T17:05:45.651Z,18.40
2023-02-06T17:08:17.473Z,15.48
2023-02-06T17:10:45.500Z,17.85
2023-02-06T17:13:16.706Z,21.15
2023-02-06T17:15:46.993Z,15.00
2023-02-06T17:18:16.393Z,15.00
2023-02-06T17:20:45.107Z,16.85
2023-02-06T17:23:12.719Z,18.25
2023-02-06T17:25:40.358Z,19.50
2023-02-06T17:28:09.321Z,21.95
2023-02-06T17:30:37.940Z,18.45
2023-02-06T17:33:06.260Z,15.38
2023-02-06T17:35:33.958Z,16.88
2023-02-06T17:38:01.225Z,17.10
2023-02-06T17:40:29.507Z,20.63
2023-02-06T17:42:57.452Z,16.45
2023-02-06T17:45:26.938Z,14.52
2023-02-06T17:47:54.480Z,19.58
2023-02-06T17:50:23.164Z,15.52
2023-02-06T17:52:52.724Z,15.07
2023-02-06T17:55:19.988Z,16.70
2023-02-06T17:57:47.124Z,16.27
2023-02-06T18:00:16.241Z,15.45
2023-02-06T18:02:43.483Z,22.70
2023-02-06T18:05:11.226Z,19.77
2023-02-06T18:07:39.187Z,16.63
2023-02-06T18:10:06.674Z,17.25
2023-02-06T18:12:33.929Z,15.35
2023-02-06T18:15:01.442Z,19.13
2023-02-06T18:17:28.820Z,15.25
2023-02-06T18:19:56.027Z,14.07
2023-02-06T18:22:23.254Z,13.93
2023-02-06T18:24:51.322Z,15.15
2023-02-06T18:27:18.980Z,16.70
2023-02-06T18:29:50.118Z,14.73
2023-02-06T18:32:18.151Z,12.88
2023-02-06T18:34:45.365Z,16.50
2023-02-06T18:37:12.667Z,17.73
2023-02-06T18:39:40.088Z,15.13
2023-02-06T18:42:42.739Z,13.38
2023-02-06T18:45:10.039Z,15.73
2023-02-06T18:47:38.981Z,17.00
2023-02-06T18:50:06.400Z,12.52
2023-02-06T18:52:33.624Z,22.58
2023-02-06T18:55:00.857Z,13.00
2023-02-06T18:57:28.140Z,13.63
2023-02-06T18:59:55.271Z,13.32
2023-02-06T19:02:22.566Z,12.52
2023-02-06T19:04:49.773Z,12.50
2023-02-06T19:07:17.311Z,16.02
2023-02-06T19:09:44.685Z,12.55
2023-02-06T19:12:11.843Z,13.90
2023-02-06T19:14:40.120Z,11.88
2023-02-06T19:17:07.278Z,13.15
2023-02-06T19:19:34.422Z,13.43
2023-02-06T19:22:01.602Z,14.13
2023-02-06T19:24:30.674Z,14.10
2023-02-06T19:26:58.561Z,11.95
2023-02-06T19:29:35.198Z,11.77
2023-02-06T19:32:04.077Z,10.95
2023-02-06T19:34:33.479Z,11.80
2023-02-06T19:37:01.790Z,12.27
2023-02-06T19:39:33.806Z,11.55
2023-02-06T19:42:01.862Z,15.52
2023-02-06T19:44:29.057Z,11.90
2023-02-06T19:46:56.422Z,12.93
2023-02-06T19:49:23.975Z,14.73
2023-02-06T19:51:51.139Z,10.43
2023-02-06T19:54:18.332Z,10.20
2023-02-06T19:56:46.782Z,13.60
2023-02-06T19:59:19.489Z,11.80
2023-02-06T20:01:46.642Z,10.77
2023-02-06T20:04:13.957Z,11.32
2023-02-06T20:06:43.824Z,12.05
2023-02-06T20:09:15.347Z,13.45
2023-02-06T20:11:42.961Z,12.80
2023-02-06T20:14:10.799Z,14.13
2023-02-06T20:16:39.400Z,13.95
2023-02-06T20:19:07.928Z,12.07
2023-02-06T20:21:39.513Z,19.30
2023-02-06T20:24:08.232Z,14.70
2023-02-06T20:26:36.553Z,15.77
2023-02-06T20:29:07.043Z,13.32
2023-02-06T20:31:34.793Z,22.45
2023-02-06T20:34:02.064Z,14.13
2023-02-06T20:36:29.884Z,13.18
2023-02-06T20:38:58.990Z,13.27
2023-02-06T20:41:27.880Z,15.13
2023-02-06T20:43:57.276Z,17.85
2023-02-06T20:46:26.304Z,24.27
2023-02-06T20:48:55.385Z,15.98
2023-02-06T20:51:22.632Z,16.58
2023-02-06T20:53:50.315Z,16.63
2023-02-06T20:56:18.249Z,15.60
2023-02-06T20:58:45.438Z,16.38
2023-02-06T21:01:19.917Z,11.38
2023-02-06T21:03:47.520Z,15.20
2023-02-06T21:06:15.312Z,14.27
2023-02-06T21:08:42.784Z,11.35
2023-02-06T21:11:10.285Z,15.98
2023-02-06T21:13:37.473Z,19.00
2023-02-06T21:16:04.774Z,18.55
2023-02-06T21:18:32.633Z,20.45
2023-02-06T21:21:07.241Z,23.98
2023-02-06T21:23:34.690Z,17.30
2023-02-06T21:26:01.906Z,16.02
2023-02-06T21:28:29.363Z,21.13
2023-02-06T21:31:01.000Z,20.02
2023-02-06T21:33:28.364Z,18.40
2023-02-06T21:35:55.580Z,20.08
2023-02-06T21:38:23.078Z,17.60
2023-02-06T21:40:50.373Z,21.15
2023-02-06T21:43:17.520Z,13.85
2023-02-06T21:45:44.981Z,16.30
2023-02-06T21:48:12.245Z,16.10
2023-02-06T21:50:40.651Z,17.20
2023-02-06T21:53:08.948Z,18.52
2023-02-06T21:55:41.354Z,21.60
2023-02-06T21:58:08.504Z,16.77
2023-02-06T22:00:35.663Z,16.48
2023-02-06T22:03:02.936Z,20.70
2023-02-06T22:05:30.176Z,22.13
2023-02-06T22:07:58.795Z,20.10
2023-02-06T22:10:25.996Z,20.77
2023-02-06T22:12:53.384Z,22.55
2023-02-06T22:15:20.539Z,18.80
2023-02-06T22:17:47.807Z,27.40
2023-02-06T22:20:16.410Z,19.00
2023-02-06T22:22:43.625Z,16.23
2023-02-06T22:25:11.762Z,21.92
2023-02-06T22:27:39.024Z,20.75
2023-02-06T22:30:07.203Z,19.70
2023-02-06T22:32:37.504Z,19.73
2023-02-06T22:35:04.947Z,24.50
2023-02-06T22:37:33.162Z,17.58
2023-02-06T22:40:00.381Z,17.40
2023-02-06T22:42:27.614Z,21.92
2023-02-06T22:44:54.760Z,16.08
2023-02-06T22:47:21.973Z,18.88
2023-02-06T22:49:51.078Z,21.52
2023-02-06T22:52:37.178Z,17.33
2023-02-06T22:55:05.707Z,20.35
2023-02-06T22:57:35.251Z,16.05
2023-02-06T23:00:02.488Z,18.90
2023-02-06T23:02:29.679Z,18.65
2023-02-06T23:04:56.833Z,18.00
2023-02-06T23:07:24.015Z,15.70
2023-02-06T23:09:51.148Z,16.17
2023-02-06T23:12:18.316Z,15.75
2023-02-06T23:14:45.442Z,13.60
2023-02-06T23:17:12.679Z,15.10
2023-02-06T23:19:40.327Z,16.52
2023-02-06T23:22:07.928Z,15.98
2023-02-06T23:24:35.099Z,14.18
2023-02-06T23:27:02.426Z,13.15
2023-02-06T23:29:29.530Z,17.60
2023-02-06T23:31:56.726Z,14.48
2023-02-06T23:34:24.506Z,15.65
2023-02-06T23:36:51.937Z,15.13
2023-02-06T23:39:19.337Z,16.50
2023-02-06T23:41:46.526Z,12.35
2023-02-06T23:44:13.819Z,13.00
2023-02-06T23:46:41.478Z,16.42
2023-02-06T23:49:09.369Z,15.35
2023-02-06T23:51:37.893Z,15.52
2023-02-06T23:54:05.758Z,14.93
2023-02-06T23:56:33.072Z,14.70
2023-02-06T23:59:00.936Z,15.30
